createdAt,value
2024-01-21T00:01:41.906Z,7.88
2024-01-21T00:04:43.660Z,8.10
2024-01-21T00:07:45.876Z,8.32
2024-01-21T00:10:47.569Z,7.82
2024-01-21T00:13:49.318Z,7.97
2024-01-21T00:16:51.058Z,8.55
2024-01-21T00:19:52.814Z,7.32
2024-01-21T00:22:54.576Z,7.50
2024-01-21T00:25:56.386Z,7.60
2024-01-21T00:29:01.763Z,8.13
2024-01-21T00:32:03.762Z,11.05
2024-01-21T00:35:05.936Z,10.65
2024-01-21T00:38:07.629Z,9.73
2024-01-21T00:41:13.590Z,8.75
2024-01-21T00:44:15.277Z,8.90
2024-01-21T00:47:17.008Z,8.18
2024-01-21T00:50:18.842Z,9.32
2024-01-21T00:53:20.557Z,8.65
2024-01-21T00:56:22.267Z,9.50
2024-01-21T00:59:24.069Z,8.57
2024-01-21T01:02:25.745Z,9.13
2024-01-21T01:05:27.531Z,9.13
2024-01-21T01:08:29.225Z,8.73
2024-01-21T01:11:31.876Z,8.20
2024-01-21T01:14:33.616Z,7.80
2024-01-21T01:17:35.591Z,8.40
2024-01-21T01:20:37.226Z,8.52
2024-01-21T01:23:38.970Z,8.23
2024-01-21T01:26:40.702Z,8.70
2024-01-21T01:29:42.379Z,8.38
2024-01-21T01:32:44.072Z,9.60
2024-01-21T01:35:45.887Z,9.50
2024-01-21T01:38:47.643Z,8.63
2024-01-21T01:41:49.350Z,9.02
2024-01-21T01:44:51.064Z,9.35
2024-01-21T01:47:53.306Z,7.57
2024-01-21T01:50:58.005Z,8.63
2024-01-21T01:54:00.032Z,8.73
2024-01-21T01:57:04.784Z,8.60
2024-01-21T02:00:10.416Z,8.02
2024-01-21T02:03:15.977Z,8.80
2024-01-21T02:06:17.766Z,8.65
2024-01-21T02:09:19.929Z,10.07
2024-01-21T02:12:21.800Z,8.82
2024-01-21T02:15:24.061Z,8.73
2024-01-21T02:18:26.167Z,9.05
2024-01-21T02:21:27.941Z,8.80
2024-01-21T02:24:31.430Z,8.65
2024-01-21T02:27:33.552Z,8.82
2024-01-21T02:30:41.958Z,8.77
2024-01-21T02:33:43.717Z,8.27
2024-01-21T02:36:45.462Z,8.15
2024-01-21T02:39:47.336Z,8.35
2024-01-21T02:42:49.072Z,9.07
2024-01-21T02:45:50.870Z,8.70
2024-01-21T02:48:52.688Z,9.70
2024-01-21T02:51:54.438Z,8.15
2024-01-21T02:54:56.286Z,7.85
2024-01-21T02:57:58.052Z,8.98
2024-01-21T03:00:59.814Z,8.95
2024-01-21T03:04:01.792Z,8.02
2024-01-21T03:07:03.633Z,8.13
2024-01-21T03:10:06.748Z,9.80
2024-01-21T03:13:08.583Z,8.93
2024-01-21T03:16:12.196Z,9.20
2024-01-21T03:19:13.896Z,7.95
2024-01-21T03:22:15.603Z,10.07
2024-01-21T03:25:17.774Z,9.13
2024-01-21T03:28:19.550Z,9.73
2024-01-21T03:31:21.231Z,10.10
2024-01-21T03:34:22.984Z,9.10
2024-01-21T03:37:24.823Z,9.38
2024-01-21T03:40:26.486Z,8.88
2024-01-21T03:43:28.172Z,9.02
2024-01-21T03:46:29.841Z,10.23
2024-01-21T03:49:31.863Z,9.20
2024-01-21T03:52:33.678Z,9.65
2024-01-21T03:55:35.386Z,10.15
2024-01-21T03:58:37.075Z,10.43
2024-01-21T04:01:45.627Z,10.57
2024-01-21T04:04:47.404Z,11.20
2024-01-21T04:07:49.169Z,10.80
2024-01-21T04:10:51.916Z,10.85
2024-01-21T04:13:53.624Z,10.50
2024-01-21T04:16:55.296Z,11.27
2024-01-21T04:19:56.946Z,11.15
2024-01-21T04:22:58.616Z,11.73
2024-01-21T04:26:01.213Z,11.90
2024-01-21T04:29:03.058Z,11.85
2024-01-21T04:32:04.947Z,11.48
2024-01-21T04:35:07.198Z,11.25
2024-01-21T04:38:08.968Z,10.60
2024-01-21T04:41:10.703Z,10.93
2024-01-21T04:44:12.451Z,11.20
2024-01-21T04:47:14.149Z,11.13
2024-01-21T04:50:15.926Z,10.65
2024-01-21T04:53:17.660Z,11.88
2024-01-21T04:56:19.875Z,11.55
2024-01-21T04:59:21.569Z,11.32
2024-01-21T05:02:23.238Z,12.30
2024-01-21T05:05:24.937Z,10.80
2024-01-21T05:08:26.622Z,11.10
2024-01-21T05:11:28.436Z,11.30
2024-01-21T05:14:30.094Z,11.65
2024-01-21T05:17:31.817Z,11.35
2024-01-21T05:20:33.595Z,12.15
2024-01-21T05:23:35.241Z,12.13
2024-01-21T05:26:44.435Z,11.27
2024-01-21T05:29:46.208Z,11.93
2024-01-21T05:32:51.362Z,11.38
2024-01-21T05:35:53.187Z,11.43
2024-01-21T05:38:55.208Z,10.52
2024-01-21T05:42:04.236Z,10.48
2024-01-21T05:45:06.419Z,10.38
2024-01-21T05:48:08.713Z,9.98
2024-01-21T05:51:11.265Z,10.15
2024-01-21T05:54:12.979Z,10.43
2024-01-21T05:57:14.787Z,9.77
2024-01-21T06:00:17.082Z,9.90
2024-01-21T06:03:18.904Z,9.93
2024-01-21T06:06:20.805Z,9.80
2024-01-21T06:09:22.527Z,9.57
2024-01-21T06:12:24.236Z,10.52
2024-01-21T06:15:25.944Z,8.45
2024-01-21T06:18:27.813Z,9.43
2024-01-21T06:21:29.584Z,9.23
2024-01-21T06:24:31.354Z,8.05
2024-01-21T06:27:33.085Z,9.18
2024-01-21T06:30:34.905Z,9.57
2024-01-21T06:33:36.740Z,9.98
2024-01-21T06:36:38.687Z,9.10
2024-01-21T06:39:40.411Z,8.98
2024-01-21T06:42:42.201Z,10.35
2024-01-21T06:45:43.926Z,10.07
2024-01-21T06:48:45.680Z,8.57
2024-01-21T06:51:55.701Z,8.95
2024-01-21T06:54:57.740Z,9.43
2024-01-21T06:57:59.518Z,8.23
2024-01-21T07:01:02.094Z,7.57
2024-01-21T07:04:04.089Z,9.43
2024-01-21T07:07:06.225Z,7.45
2024-01-21T07:10:08.543Z,8.25
2024-01-21T07:13:11.050Z,7.25
2024-01-21T07:16:12.909Z,8.63
2024-01-21T07:19:14.901Z,23.10
2024-01-21T07:22:16.644Z,12.45
2024-01-21T07:25:18.387Z,11.25
2024-01-21T07:28:20.279Z,11.70
2024-01-21T07:31:22.000Z,8.30
2024-01-21T07:34:24.081Z,9.32
2024-01-21T07:37:25.914Z,8.43
2024-01-21T07:40:28.284Z,8.57
2024-01-21T07:43:31.269Z,9.05
2024-01-21T07:46:33.007Z,7.13
2024-01-21T07:49:34.780Z,8.18
2024-01-21T07:52:36.564Z,8.02
2024-01-21T07:55:38.486Z,6.50
2024-01-21T07:58:40.234Z,6.90
2024-01-21T08:01:42.376Z,6.32
2024-01-21T08:04:44.228Z,7.13
2024-01-21T08:07:46.453Z,7.28
2024-01-21T08:10:48.178Z,7.22
2024-01-21T08:13:49.845Z,6.68
2024-01-21T08:16:51.594Z,6.47
2024-01-21T08:19:53.595Z,6.35
2024-01-21T08:22:55.580Z,6.53
2024-01-21T08:25:57.329Z,6.03
2024-01-21T08:28:59.394Z,6.50
2024-01-21T08:32:02.210Z,6.68
2024-01-21T08:35:04.242Z,5.65
2024-01-21T08:38:05.994Z,6.32
2024-01-21T08:41:07.895Z,5.55
2024-01-21T08:44:10.026Z,5.80
2024-01-21T08:47:12.661Z,6.45
2024-01-21T08:50:14.407Z,6.07
2024-01-21T08:53:16.158Z,6.93
2024-01-21T08:56:17.798Z,5.88
2024-01-21T08:59:19.492Z,6.13
2024-01-21T09:02:21.155Z,5.47
2024-01-21T09:05:23.130Z,5.60
2024-01-21T09:08:24.915Z,5.70
2024-01-21T09:11:26.975Z,5.53
2024-01-21T09:14:28.787Z,4.60
2024-01-21T09:17:30.620Z,4.93
2024-01-21T09:20:32.399Z,5.07
2024-01-21T09:23:34.268Z,4.75
2024-01-21T09:26:36.087Z,4.85
2024-01-21T09:29:37.822Z,4.22
2024-01-21T09:32:39.605Z,4.15
2024-01-21T09:35:41.624Z,4.20
2024-01-21T09:38:43.671Z,4.43
2024-01-21T09:41:52.091Z,3.65
2024-01-21T09:44:53.854Z,4.25
2024-01-21T09:47:55.993Z,3.88
2024-01-21T09:50:59.991Z,4.53
2024-01-21T09:54:05.908Z,4.32
2024-01-21T09:57:09.862Z,4.22
2024-01-21T10:00:14.936Z,4.35
2024-01-21T10:03:17.061Z,4.30
2024-01-21T10:06:19.089Z,4.25
2024-01-21T10:09:24.885Z,4.13
2024-01-21T10:12:26.971Z,4.40
2024-01-21T10:15:31.267Z,4.40
2024-01-21T10:18:33.744Z,4.20
2024-01-21T10:21:35.597Z,4.18
2024-01-21T10:24:57.841Z,3.90
2024-01-21T10:27:59.595Z,3.75
2024-01-21T10:31:01.722Z,3.67
2024-01-21T10:34:04.325Z,3.80
2024-01-21T10:37:06.344Z,4.07
2024-01-21T10:40:10.565Z,3.25
2024-01-21T10:43:15.950Z,3.35
2024-01-21T10:46:19.571Z,3.47
2024-01-21T10:49:21.842Z,3.30
2024-01-21T10:52:24.610Z,3.65
2024-01-21T10:55:27.099Z,3.33
2024-01-21T10:58:29.650Z,3.00
2024-01-21T11:01:32.523Z,3.47
2024-01-21T11:04:35.939Z,3.70
2024-01-21T11:07:39.131Z,3.20
2024-01-21T11:10:40.839Z,3.30
2024-01-21T11:13:46.964Z,3.20
2024-01-21T11:16:48.756Z,3.67
2024-01-21T11:19:50.694Z,3.70
2024-01-21T11:22:52.636Z,4.00
2024-01-21T11:25:55.072Z,4.13
2024-01-21T11:29:01.816Z,3.75
2024-01-21T11:35:10.916Z,5.57
2024-01-21T11:41:15.673Z,4.35
2024-01-21T11:44:30.211Z,3.75
2024-01-21T11:47:33.507Z,4.35
2024-01-21T11:50:36.220Z,3.95
2024-01-21T11:53:37.887Z,3.78
2024-01-21T11:56:45.389Z,11.88
2024-01-21T11:59:48.126Z,3.80
2024-01-21T12:02:49.783Z,3.30
2024-01-21T12:05:51.673Z,3.35
2024-01-21T12:08:56.984Z,3.28
2024-01-21T12:12:00.403Z,3.38
2024-01-21T12:15:03.655Z,4.38
2024-01-21T12:18:06.069Z,4.07
2024-01-21T12:21:08.123Z,4.05
2024-01-21T12:24:10.126Z,4.20
2024-01-21T12:27:15.348Z,3.75
2024-01-21T12:30:17.888Z,2.97
2024-01-21T12:33:19.804Z,3.35
2024-01-21T12:36:21.670Z,4.05
2024-01-21T12:39:24.758Z,3.80
2024-01-21T12:42:28.299Z,3.05
2024-01-21T12:45:30.004Z,3.63
2024-01-21T12:48:31.876Z,3.63
2024-01-21T12:51:33.743Z,3.72
2024-01-21T12:54:36.118Z,3.83
2024-01-21T12:57:38.052Z,3.58
2024-01-21T13:00:43.124Z,3.92
2024-01-21T13:03:45.166Z,3.22
2024-01-21T13:06:47.530Z,4.30
2024-01-21T13:09:50.057Z,4.35
2024-01-21T13:12:52.014Z,4.13
2024-01-21T13:15:53.737Z,4.40
2024-01-21T13:18:55.485Z,4.80
2024-01-21T13:21:57.359Z,4.45
2024-01-21T13:24:59.826Z,5.20
2024-01-21T13:28:15.129Z,4.50
2024-01-21T13:31:16.906Z,5.45
2024-01-21T13:34:18.645Z,5.60
2024-01-21T13:37:26.728Z,5.18
2024-01-21T13:40:29.450Z,5.70
2024-01-21T13:43:32.112Z,5.85
2024-01-21T13:46:34.801Z,5.20
2024-01-21T13:49:37.101Z,4.93
2024-01-21T13:52:39.342Z,4.40
2024-01-21T13:55:41.164Z,4.93
2024-01-21T13:58:42.848Z,5.68
2024-01-21T14:01:53.862Z,4.82
2024-01-21T14:04:59.520Z,4.65
2024-01-21T14:08:01.221Z,4.93
2024-01-21T14:11:03.111Z,5.00
2024-01-21T14:14:04.999Z,5.20
2024-01-21T14:17:06.892Z,4.65
2024-01-21T14:20:12.024Z,4.70
2024-01-21T14:23:13.959Z,4.22
2024-01-21T14:26:16.707Z,4.40
2024-01-21T14:29:26.268Z,3.38
2024-01-21T14:32:28.165Z,3.47
2024-01-21T14:35:31.112Z,3.40
2024-01-21T14:38:32.836Z,5.78
2024-01-21T14:41:34.910Z,6.38
2024-01-21T14:44:36.654Z,10.93
2024-01-21T14:47:38.620Z,2.63
2024-01-21T14:50:40.526Z,2.80
2024-01-21T14:53:42.374Z,3.58
2024-01-21T14:56:44.183Z,3.25
2024-01-21T14:59:45.989Z,3.10
2024-01-21T15:02:47.836Z,3.38
2024-01-21T15:05:49.607Z,3.00
2024-01-21T15:08:51.306Z,3.72
2024-01-21T15:11:53.086Z,2.97
2024-01-21T15:15:04.698Z,2.95
2024-01-21T15:18:12.402Z,4.00
2024-01-21T15:21:19.424Z,6.18
2024-01-21T15:24:21.266Z,4.28
2024-01-21T15:27:24.440Z,3.97
2024-01-21T15:30:26.385Z,4.03
2024-01-21T15:33:32.456Z,4.30
2024-01-21T15:36:36.396Z,4.78
2024-01-21T15:39:38.137Z,4.57
2024-01-21T15:42:41.352Z,3.85
2024-01-21T15:45:43.250Z,3.08
2024-01-21T15:48:45.167Z,3.00
2024-01-21T15:51:49.064Z,3.50
2024-01-21T15:54:52.389Z,4.03
2024-01-21T15:57:54.230Z,3.20
2024-01-21T16:00:56.126Z,4.05
2024-01-21T16:03:58.720Z,3.08
2024-01-21T16:07:00.622Z,3.15
2024-01-21T16:10:02.540Z,5.85
2024-01-21T16:13:04.952Z,5.65
2024-01-21T16:16:07.092Z,5.25
2024-01-21T16:19:09.048Z,3.90
2024-01-21T16:22:11.331Z,4.22
2024-01-21T16:25:13.276Z,4.88
2024-01-21T16:28:15.254Z,4.50
2024-01-21T16:31:17.793Z,4.20
2024-01-21T16:34:19.634Z,4.50
2024-01-21T16:37:21.414Z,4.70
2024-01-21T16:40:23.466Z,5.05
2024-01-21T16:43:25.383Z,5.57
2024-01-21T16:46:27.166Z,4.93
2024-01-21T16:49:28.954Z,4.70
2024-01-21T16:52:33.954Z,4.70
2024-01-21T16:55:35.736Z,3.80
2024-01-21T16:58:37.871Z,3.65
2024-01-21T17:01:45.525Z,4.00
2024-01-21T17:04:47.973Z,3.75
2024-01-21T17:07:49.889Z,4.22
2024-01-21T17:10:57.599Z,2.97
2024-01-21T17:13:59.334Z,3.30
2024-01-21T17:17:01.677Z,3.38
2024-01-21T17:20:06.118Z,3.80
2024-01-21T17:23:08.994Z,4.25
2024-01-21T17:26:13.200Z,3.65
2024-01-21T17:29:14.958Z,4.20
2024-01-21T17:32:16.658Z,5.05
2024-01-21T17:35:18.514Z,5.35
2024-01-21T17:38:20.193Z,8.30
2024-01-21T17:41:23.287Z,7.18
2024-01-21T17:44:24.988Z,6.20
2024-01-21T17:47:26.977Z,6.38
2024-01-21T17:50:28.884Z,7.35
2024-01-21T17:53:30.622Z,6.45
2024-01-21T17:56:32.688Z,6.90
2024-01-21T17:59:34.601Z,7.57
2024-01-21T18:02:36.452Z,6.90
2024-01-21T18:05:38.384Z,7.07
2024-01-21T18:08:40.247Z,8.40
2024-01-21T18:11:42.098Z,6.65
2024-01-21T18:14:43.812Z,7.38
2024-01-21T18:17:46.124Z,7.90
2024-01-21T18:20:48.280Z,11.15
2024-01-21T18:23:50.764Z,10.60
2024-01-21T18:26:52.618Z,10.57
2024-01-21T18:29:54.532Z,8.32
2024-01-21T18:32:56.461Z,7.15
2024-01-21T18:35:58.246Z,5.85
2024-01-21T18:39:00.046Z,4.95
2024-01-21T18:42:02.043Z,6.22
2024-01-21T18:45:04.073Z,5.47
2024-01-21T18:48:06.703Z,5.63
2024-01-21T18:51:08.937Z,5.97
2024-01-21T18:54:11.701Z,5.97
2024-01-21T18:57:14.958Z,6.72
2024-01-21T19:00:17.065Z,6.97
2024-01-21T19:03:19.076Z,6.82
2024-01-21T19:06:21.650Z,8.13
2024-01-21T19:09:24.482Z,7.82
2024-01-21T19:12:27.344Z,7.97
2024-01-21T19:15:30.905Z,9.15
2024-01-21T19:18:32.727Z,9.20
2024-01-21T19:21:35.048Z,9.88
2024-01-21T19:24:37.523Z,10.48
2024-01-21T19:27:39.249Z,10.13
2024-01-21T19:30:40.931Z,9.93
2024-01-21T19:33:42.796Z,9.68
2024-01-21T19:36:45.642Z,9.35
2024-01-21T19:39:50.836Z,9.52
2024-01-21T19:42:52.518Z,9.38
2024-01-21T19:45:54.190Z,9.73
2024-01-21T19:48:56.975Z,9.18
2024-01-21T19:52:00.205Z,8.63
2024-01-21T19:55:02.263Z,9.40
2024-01-21T19:58:06.035Z,10.02
2024-01-21T20:01:07.850Z,10.10
2024-01-21T20:04:14.499Z,9.40
2024-01-21T20:07:20.287Z,10.35
2024-01-21T20:10:23.095Z,10.60
2024-01-21T20:13:25.056Z,11.25
2024-01-21T20:16:26.967Z,11.48
2024-01-21T20:19:28.674Z,9.40
2024-01-21T20:22:30.376Z,12.45
2024-01-21T20:25:33.503Z,13.40
2024-01-21T20:28:35.396Z,14.70
2024-01-21T20:31:37.139Z,14.25
2024-01-21T20:34:39.870Z,13.73
2024-01-21T20:37:41.956Z,12.93
2024-01-21T20:40:43.704Z,11.20
2024-01-21T20:43:48.328Z,12.32
2024-01-21T20:46:50.464Z,11.23
2024-01-21T20:49:52.254Z,10.20
2024-01-21T20:52:56.330Z,11.00
2024-01-21T20:55:58.189Z,11.68
2024-01-21T20:59:00.134Z,12.55
2024-01-21T21:02:01.899Z,11.48
2024-01-21T21:05:03.650Z,10.85
2024-01-21T21:08:06.601Z,11.82
2024-01-21T21:11:08.357Z,11.35
2024-01-21T21:14:10.103Z,11.82
2024-01-21T21:17:11.930Z,9.95
2024-01-21T21:20:13.688Z,10.82
2024-01-21T21:23:15.525Z,7.80
2024-01-21T21:26:17.205Z,8.05
2024-01-21T21:29:18.908Z,7.43
2024-01-21T21:32:20.604Z,7.30
2024-01-21T21:35:22.370Z,6.68
2024-01-21T21:38:24.119Z,5.80
2024-01-21T21:41:25.833Z,5.28
2024-01-21T21:44:27.781Z,5.25
2024-01-21T21:47:29.529Z,4.82
2024-01-21T21:50:31.859Z,5.28
2024-01-21T21:53:33.943Z,4.47
2024-01-21T21:56:36.023Z,5.00
2024-01-21T21:59:37.829Z,4.35
2024-01-21T22:02:40.108Z,5.40
2024-01-21T22:05:41.934Z,6.20
2024-01-21T22:08:44.106Z,5.45
2024-01-21T22:11:45.908Z,5.68
2024-01-21T22:14:47.775Z,6.05
2024-01-21T22:17:49.764Z,5.13
2024-01-21T22:20:51.651Z,5.45
2024-01-21T22:23:53.352Z,5.68
2024-01-21T22:26:55.214Z,5.05
2024-01-21T22:29:57.013Z,4.40
2024-01-21T22:32:59.519Z,4.43
2024-01-21T22:36:01.690Z,5.18
2024-01-21T22:39:04.694Z,4.60
2024-01-21T22:42:06.567Z,5.50
2024-01-21T22:45:09.894Z,5.35
2024-01-21T22:48:11.835Z,4.97
2024-01-21T22:51:13.856Z,4.57
2024-01-21T22:54:15.654Z,4.88
2024-01-21T22:57:17.369Z,4.53
2024-01-21T23:00:22.708Z,4.18
2024-01-21T23:03:24.618Z,4.15
2024-01-21T23:06:26.318Z,5.10
2024-01-21T23:09:28.011Z,4.22
2024-01-21T23:12:29.726Z,4.70
2024-01-21T23:15:31.408Z,4.30
2024-01-21T23:18:33.195Z,4.25
2024-01-21T23:21:35.020Z,4.53
2024-01-21T23:24:36.690Z,3.85
2024-01-21T23:27:38.472Z,3.70
2024-01-21T23:30:40.161Z,3.67
2024-01-21T23:33:41.930Z,3.35
2024-01-21T23:36:43.660Z,3.90
2024-01-21T23:39:45.363Z,4.00
2024-01-21T23:42:47.189Z,3.20
2024-01-21T23:45:48.929Z,3.28
2024-01-21T23:48:50.721Z,2.95
2024-01-21T23:51:52.630Z,3.25
2024-01-21T23:54:54.370Z,3.38
2024-01-21T23:57:57.048Z,3.20
